Time;durP1;ratioP1;P1;durP2;ratioP2;P2;SDS_P1;SDS_P2;PMS_P1;PMS_P2;Temp;Humidity;BMP_temperature;BMP_pressure;BME280_temperature;BME280_humidity;BME280_pressure;Samples;Min_cycle;Max_cycle;Signal;HPM_P1;HPM_P2
2022/07/05 00:01:42;;;;;;;8.02;2.10;;;14.30;99.90;;;;;;5038625;28;20025;-66
2022/07/05 00:04:09;;;;;;;10.30;2.30;;;14.40;99.90;;;;;;5042156;28;20016;-65
2022/07/05 00:07:17;;;;;;;6.20;2.25;;;14.40;99.90;;;;;;5042782;28;20048;-65
2022/07/05 00:09:23;;;;;;;6.85;2.30;;;14.40;99.90;;;;;;5040201;28;20511;-66
2022/07/05 00:11:50;;;;;;;6.80;1.88;;;14.40;99.90;;;;;;5042947;28;20034;-66
2022/07/05 00:14:17;;;;;;;7.65;1.90;;;14.50;99.90;;;;;;5041170;28;20466;-66
2022/07/05 00:16:44;;;;;;;9.90;2.17;;;14.60;99.90;;;;;;5042129;28;20044;-66
2022/07/05 00:19:12;;;;;;;7.50;3.13;;;14.60;99.90;;;;;;5042097;28;20499;-66
2022/07/05 00:21:39;;;;;;;7.15;2.45;;;14.50;99.90;;;;;;5041735;28;20037;-66
2022/07/05 00:24:06;;;;;;;5.93;1.83;;;14.50;99.90;;;;;;5040321;28;20056;-67
2022/07/05 00:26:33;;;;;;;8.07;1.88;;;14.40;99.90;;;;;;5040411;28;20029;-66
2022/07/05 00:29:00;;;;;;;8.93;2.72;;;14.40;99.90;;;;;;5042344;28;20125;-66
2022/07/05 00:31:27;;;;;;;6.93;2.00;;;14.40;99.90;;;;;;5041881;28;20636;-66
2022/07/05 00:33:54;;;;;;;5.10;1.98;;;14.50;99.90;;;;;;5041573;28;20021;-66
2022/07/05 00:36:21;;;;;;;7.20;2.33;;;14.60;99.90;;;;;;5042000;28;20028;-66
2022/07/05 00:38:48;;;;;;;6.40;1.88;;;14.60;99.90;;;;;;5041059;28;20028;-67
2022/07/05 00:41:16;;;;;;;6.75;1.85;;;14.70;99.90;;;;;;5040844;28;20037;-67
2022/07/05 00:44:03;;;;;;;8.05;2.38;;;14.80;99.90;;;;;;5041881;28;20228;-66
2022/07/05 00:46:31;;;;;;;9.30;2.38;;;14.80;99.90;;;;;;5041009;28;20386;-65
2022/07/05 00:48:59;;;;;;;5.80;1.85;;;14.80;99.90;;;;;;5040929;28;20075;-66
2022/07/05 00:51:29;;;;;;;6.15;1.60;;;14.90;99.90;;;;;;5041957;28;20037;-66
2022/07/05 00:53:56;;;;;;;5.63;1.85;;;14.90;99.90;;;;;;5041104;28;20430;-66
2022/07/05 00:56:25;;;;;;;7.63;1.55;;;14.90;99.90;;;;;;5055251;28;20028;-66
2022/07/05 00:58:53;;;;;;;6.60;1.60;;;14.90;99.90;;;;;;5041262;28;20024;-67
2022/07/05 01:01:21;;;;;;;5.75;1.30;;;14.90;99.90;;;;;;5041864;28;20029;-66
2022/07/05 01:03:48;;;;;;;8.63;2.15;;;15.00;99.90;;;;;;5040886;28;20400;-66
2022/07/05 01:06:15;;;;;;;7.30;1.27;;;15.10;99.90;;;;;;5042045;28;20021;-66
2022/07/05 01:08:44;;;;;;;4.50;1.63;;;15.20;99.90;;;;;;5038456;28;20042;-67
2022/07/05 01:11:13;;;;;;;5.32;1.42;;;15.40;99.90;;;;;;5041660;28;20395;-66
2022/07/05 01:13:41;;;;;;;3.60;1.30;;;15.40;99.90;;;;;;5041867;28;20481;-67
2022/07/05 01:16:09;;;;;;;6.00;1.65;;;15.50;99.90;;;;;;5041357;28;20565;-66
2022/07/05 01:18:37;;;;;;;6.53;2.00;;;15.70;99.90;;;;;;5041614;28;20651;-67
2022/07/05 01:21:04;;;;;;;5.35;1.30;;;15.70;99.90;;;;;;5042586;28;20028;-66
2022/07/05 01:23:32;;;;;;;4.43;1.83;;;15.70;99.90;;;;;;5039477;28;20796;-66
2022/07/05 01:26:02;;;;;;;3.80;1.25;;;15.90;99.90;;;;;;5041165;28;20056;-66
2022/07/05 01:28:30;;;;;;;3.58;1.23;;;16.00;99.90;;;;;;5040949;28;20035;-66
2022/07/05 01:30:57;;;;;;;5.43;1.92;;;15.90;99.90;;;;;;5040663;28;20517;-66
2022/07/05 01:33:30;;;;;;;5.30;1.08;;;15.80;99.90;;;;;;5039681;28;20463;-66
2022/07/05 01:35:57;;;;;;;5.22;1.40;;;15.70;99.90;;;;;;5040191;28;20040;-65
2022/07/05 01:38:27;;;;;;;6.03;1.48;;;15.70;99.90;;;;;;5037462;28;20552;-65
2022/07/05 01:40:55;;;;;;;7.00;2.78;;;15.60;99.90;;;;;;5039633;28;20079;-66
2022/07/05 01:43:23;;;;;;;8.55;1.80;;;15.50;99.90;;;;;;5040031;28;20125;-66
2022/07/05 01:45:51;;;;;;;5.07;1.58;;;15.50;99.90;;;;;;5039544;28;20021;-65
2022/07/05 01:48:21;;;;;;;3.88;1.10;;;15.40;99.90;;;;;;5040665;28;20558;-66
2022/07/05 01:50:54;;;;;;;6.70;2.30;;;15.30;99.90;;;;;;5039160;28;20676;-65
2022/07/05 01:53:24;;;;;;;4.93;1.63;;;15.30;99.90;;;;;;5054696;28;20103;-66
2022/07/05 01:55:51;;;;;;;3.65;1.13;;;15.20;99.90;;;;;;5038816;28;20112;-66
2022/07/05 01:58:19;;;;;;;4.82;1.50;;;15.30;99.90;;;;;;5038987;28;20417;-67
2022/07/05 02:00:48;;;;;;;6.90;1.20;;;15.40;99.90;;;;;;5039858;28;20028;-64
2022/07/05 02:03:16;;;;;;;9.20;2.20;;;15.30;99.90;;;;;;5040634;28;20541;-63
2022/07/05 02:05:44;;;;;;;9.15;1.63;;;15.40;99.90;;;;;;5039442;28;20408;-64
2022/07/05 02:08:12;;;;;;;3.50;2.35;;;15.50;99.90;;;;;;5040841;28;20438;-65
2022/07/05 02:10:40;;;;;;;2.28;0.68;;;15.50;99.90;;;;;;5043131;28;20016;-64
2022/07/05 02:13:08;;;;;;;2.55;1.15;;;15.40;99.90;;;;;;5044180;28;20021;-65
2022/07/05 02:15:37;;;;;;;5.60;1.05;;;15.30;99.90;;;;;;5042459;28;20025;-64
2022/07/05 02:18:05;;;;;;;7.05;1.30;;;15.30;99.90;;;;;;5039756;28;20148;-64
2022/07/05 02:20:33;;;;;;;3.90;1.00;;;15.20;99.90;;;;;;5041511;28;20427;-64
2022/07/05 02:23:01;;;;;;;2.78;1.13;;;15.30;99.90;;;;;;5040967;28;20372;-64
2022/07/05 02:25:28;;;;;;;6.13;1.08;;;15.50;99.90;;;;;;5040396;28;20029;-64
2022/07/05 02:27:56;;;;;;;5.95;0.90;;;15.60;99.90;;;;;;5045219;28;20025;-65
2022/07/05 02:30:23;;;;;;;5.05;0.98;;;15.60;99.90;;;;;;5042050;28;20048;-65
2022/07/05 02:32:50;;;;;;;4.60;1.33;;;15.60;99.90;;;;;;5036250;28;20064;-64
2022/07/05 02:35:17;;;;;;;1.83;1.08;;;15.50;99.90;;;;;;5043086;28;20318;-66
2022/07/05 02:37:44;;;;;;;3.72;0.90;;;15.60;99.90;;;;;;5045307;28;20168;-64
2022/07/05 02:40:13;;;;;;;2.85;0.93;;;15.60;99.90;;;;;;5044360;28;20076;-64
2022/07/05 02:42:40;;;;;;;3.97;0.73;;;15.50;99.90;;;;;;5041042;28;20020;-64
2022/07/05 02:45:08;;;;;;;2.42;0.90;;;15.50;99.90;;;;;;5043144;28;20569;-63
2022/07/05 02:47:44;;;;;;;5.32;1.13;;;15.40;99.90;;;;;;5042744;28;20036;-66
2022/07/05 02:50:12;;;;;;;7.95;1.80;;;15.50;99.90;;;;;;5027309;28;20031;-64
2022/07/05 02:52:39;;;;;;;5.43;0.90;;;15.50;99.90;;;;;;5046390;28;20033;-68
2022/07/05 02:55:56;;;;;;;5.13;1.13;;;15.60;99.90;;;;;;5046793;28;20028;-67
2022/07/05 02:59:13;;;;;;;8.23;2.05;;;15.70;99.90;;;;;;5048504;28;20415;-68
2022/07/05 03:02:29;;;;;;;4.43;1.77;;;15.90;99.90;;;;;;5047335;28;20017;-66
2022/07/05 03:05:45;;;;;;;7.07;2.35;;;16.10;99.90;;;;;;5047971;28;20029;-64
2022/07/05 03:09:01;;;;;;;4.85;1.58;;;16.20;99.90;;;;;;5047166;28;20025;-65
2022/07/05 03:12:17;;;;;;;5.10;1.50;;;16.40;99.90;;;;;;5048014;28;20486;-64
2022/07/05 03:15:33;;;;;;;7.75;1.67;;;16.30;99.90;;;;;;5049472;28;20021;-65
2022/07/05 03:28:47;;;;;;;4.97;1.27;;;16.00;99.90;;;;;;5040542;28;20560;-65
2022/07/05 03:31:14;;;;;;;3.50;1.33;;;16.10;99.90;;;;;;5043501;28;20484;-65
2022/07/05 03:33:41;;;;;;;7.97;1.50;;;16.20;99.90;;;;;;5044647;28;20040;-65
2022/07/05 03:36:08;;;;;;;3.38;2.13;;;16.20;99.90;;;;;;5043537;28;20028;-64
2022/07/05 03:38:36;;;;;;;6.55;1.33;;;16.20;99.90;;;;;;5044131;28;20021;-64
2022/07/05 03:41:03;;;;;;;7.07;1.40;;;16.20;99.90;;;;;;5026660;28;20021;-66
2022/07/05 03:43:30;;;;;;;5.55;1.48;;;16.00;99.90;;;;;;5042490;28;20036;-64
2022/07/05 03:45:57;;;;;;;5.72;1.58;;;15.90;99.90;;;;;;5040716;28;20059;-64
2022/07/05 03:48:24;;;;;;;7.43;2.75;;;15.70;99.90;;;;;;5042550;28;20422;-64
2022/07/05 03:50:51;;;;;;;10.50;5.40;;;15.70;99.90;;;;;;5042373;28;20033;-65
2022/07/05 03:53:19;;;;;;;4.60;1.30;;;15.60;99.90;;;;;;5043902;28;20948;-66
2022/07/05 03:55:46;;;;;;;7.32;1.67;;;15.50;99.90;;;;;;5044355;28;20040;-65
2022/07/05 03:58:13;;;;;;;9.63;1.80;;;15.40;99.90;;;;;;5043303;28;20406;-66
2022/07/05 04:00:40;;;;;;;8.68;2.42;;;15.40;99.90;;;;;;5043466;28;20022;-65
2022/07/05 04:03:07;;;;;;;6.88;1.70;;;15.50;99.90;;;;;;5042712;28;20123;-64
2022/07/05 04:05:34;;;;;;;5.53;2.00;;;15.40;99.90;;;;;;5042546;28;20025;-65
2022/07/05 04:08:01;;;;;;;12.73;1.77;;;15.40;99.90;;;;;;5043977;28;20537;-65
2022/07/05 04:10:28;;;;;;;7.90;2.50;;;15.40;99.90;;;;;;5043737;28;20032;-67
2022/07/05 04:12:56;;;;;;;7.47;1.50;;;15.50;99.90;;;;;;5042466;28;20029;-64
2022/07/05 04:15:23;;;;;;;13.88;2.30;;;15.50;99.90;;;;;;5042802;28;20222;-66
2022/07/05 04:17:54;;;;;;;7.07;1.95;;;15.50;99.90;;;;;;5043972;28;20575;-68
2022/07/05 04:20:23;;;;;;;9.00;1.80;;;15.50;99.90;;;;;;5042639;28;20025;-68
2022/07/05 04:22:51;;;;;;;10.13;2.83;;;15.60;99.90;;;;;;5042149;28;20919;-67
2022/07/05 04:25:18;;;;;;;9.50;2.08;;;15.70;99.90;;;;;;5043450;28;20025;-67
2022/07/05 04:27:51;;;;;;;7.00;1.30;;;15.70;99.90;;;;;;5042155;28;20025;-65
2022/07/05 04:30:20;;;;;;;9.18;1.75;;;15.80;99.90;;;;;;5043414;28;20044;-67
2022/07/05 04:32:47;;;;;;;9.05;2.22;;;15.90;99.90;;;;;;5041261;28;20055;-67
2022/07/05 04:35:16;;;;;;;5.22;1.27;;;15.90;99.90;;;;;;5043385;28;20013;-67
2022/07/05 04:37:44;;;;;;;6.90;1.67;;;15.90;99.90;;;;;;5042515;28;20067;-67
2022/07/05 04:40:13;;;;;;;7.68;1.50;;;15.90;99.90;;;;;;5044398;28;20025;-72
2022/07/05 04:42:41;;;;;;;7.65;1.55;;;16.00;99.90;;;;;;5041694;28;20057;-70
2022/07/05 04:45:09;;;;;;;7.88;1.30;;;16.00;99.90;;;;;;5042372;28;21073;-67
2022/07/05 04:47:36;;;;;;;7.85;2.08;;;16.00;99.90;;;;;;5041908;28;20159;-66
2022/07/05 04:50:06;;;;;;;7.10;2.58;;;15.90;99.90;;;;;;5046117;28;20515;-69
2022/07/05 04:52:33;;;;;;;5.60;1.67;;;15.90;99.90;;;;;;5047527;28;20056;-67
2022/07/05 04:55:00;;;;;;;8.52;1.70;;;15.80;99.90;;;;;;5045799;28;20025;-68
2022/07/05 04:57:27;;;;;;;8.70;1.67;;;15.80;99.90;;;;;;5047643;28;20033;-70
2022/07/05 04:59:54;;;;;;;6.45;1.65;;;15.80;99.90;;;;;;5045679;28;20555;-65
2022/07/05 05:02:21;;;;;;;11.30;3.05;;;15.80;99.90;;;;;;5044360;28;20025;-66
2022/07/05 05:04:48;;;;;;;8.15;2.42;;;15.80;99.90;;;;;;5045326;28;20387;-64
2022/07/05 05:07:15;;;;;;;4.68;1.85;;;15.80;99.90;;;;;;5045965;28;20052;-69
2022/07/05 05:09:43;;;;;;;6.63;1.40;;;15.70;99.90;;;;;;5046240;28;20029;-69
2022/07/05 05:12:10;;;;;;;9.77;2.08;;;15.70;99.90;;;;;;5045604;28;20033;-68
2022/07/05 05:14:37;;;;;;;8.23;2.03;;;15.70;99.90;;;;;;5045208;28;20028;-69
2022/07/05 05:17:04;;;;;;;7.53;1.75;;;15.70;99.90;;;;;;5045090;28;20108;-63
2022/07/05 05:19:31;;;;;;;5.10;1.35;;;15.60;99.90;;;;;;5042460;28;20025;-64
2022/07/05 05:21:58;;;;;;;5.25;1.77;;;15.50;99.90;;;;;;5044427;28;20025;-65
2022/07/05 05:24:26;;;;;;;5.68;1.45;;;15.50;99.90;;;;;;5043772;28;20025;-70
2022/07/05 05:26:53;;;;;;;5.22;1.30;;;15.60;99.90;;;;;;5044397;28;20037;-67
2022/07/05 05:29:22;;;;;;;6.45;1.80;;;15.60;99.90;;;;;;5092373;22;20032;-70
2022/07/05 05:31:50;;;;;;;9.55;1.90;;;15.50;99.90;;;;;;5072412;28;20041;-66
2022/07/05 05:34:17;;;;;;;8.15;2.03;;;15.30;99.90;;;;;;5062021;28;20044;-66
2022/07/05 05:36:44;;;;;;;6.47;1.45;;;15.30;99.90;;;;;;5079710;28;20416;-70
2022/07/05 05:39:11;;;;;;;7.30;1.45;;;15.20;99.90;;;;;;5076681;28;20028;-67
2022/07/05 05:41:38;;;;;;;7.75;2.00;;;15.10;99.90;;;;;;5079159;28;20161;-67
2022/07/05 05:44:05;;;;;;;5.75;1.23;;;15.10;99.90;;;;;;5057800;28;20549;-71
2022/07/05 05:46:32;;;;;;;8.98;2.08;;;15.00;99.90;;;;;;5058114;28;20036;-66
2022/07/05 05:48:59;;;;;;;6.00;1.17;;;14.90;99.90;;;;;;5057415;28;20036;-67
2022/07/05 05:51:26;;;;;;;6.55;1.15;;;14.90;99.90;;;;;;5061648;28;20028;-65
2022/07/05 05:53:54;;;;;;;5.82;1.40;;;14.90;99.90;;;;;;5055635;28;20406;-66
2022/07/05 05:56:21;;;;;;;6.88;1.13;;;14.90;99.90;;;;;;5057622;28;20024;-69
2022/07/05 05:58:48;;;;;;;6.05;1.15;;;14.90;99.90;;;;;;5056927;28;20048;-66
2022/07/05 06:01:15;;;;;;;2.20;0.98;;;14.90;99.90;;;;;;5059733;28;20070;-66
2022/07/05 06:03:42;;;;;;;6.50;2.08;;;14.90;99.90;;;;;;5058844;28;20035;-70
2022/07/05 06:06:09;;;;;;;5.68;1.50;;;14.90;99.90;;;;;;5058710;28;20157;-68
2022/07/05 06:08:36;;;;;;;6.15;1.17;;;15.00;99.90;;;;;;5055888;28;20118;-70
2022/07/05 06:11:04;;;;;;;2.88;1.10;;;14.90;99.90;;;;;;5056292;28;20056;-66
2022/07/05 06:13:32;;;;;;;8.18;1.48;;;14.80;99.90;;;;;;5056998;28;20032;-69
2022/07/05 06:15:59;;;;;;;4.15;1.33;;;14.90;99.90;;;;;;5059274;28;20459;-70
2022/07/05 06:18:27;;;;;;;5.93;1.50;;;14.80;99.90;;;;;;5059007;28;20024;-69
2022/07/05 06:20:54;;;;;;;5.43;1.42;;;14.70;99.90;;;;;;5057009;28;20029;-66
2022/07/05 06:23:21;;;;;;;8.90;1.27;;;14.60;99.90;;;;;;5058269;28;20032;-64
2022/07/05 06:25:48;;;;;;;7.88;1.52;;;14.50;99.90;;;;;;5058794;28;20433;-66
2022/07/05 06:28:18;;;;;;;4.82;1.42;;;14.50;99.90;;;;;;5040475;28;20037;-68
2022/07/05 06:30:45;;;;;;;2.88;1.38;;;14.40;99.90;;;;;;5058002;28;20041;-67
2022/07/05 06:33:13;;;;;;;5.25;1.02;;;14.50;99.90;;;;;;5055811;28;20081;-68
2022/07/05 06:35:40;;;;;;;7.38;1.10;;;14.50;99.90;;;;;;5057822;28;20122;-69
2022/07/05 06:38:09;;;;;;;7.57;1.23;;;14.40;99.90;;;;;;5059656;28;20079;-68
2022/07/05 06:40:38;;;;;;;7.15;1.70;;;14.30;99.90;;;;;;5055805;28;20439;-67
2022/07/05 06:43:08;;;;;;;9.00;1.40;;;14.20;99.90;;;;;;5058206;28;20206;-65
2022/07/05 06:45:35;;;;;;;5.30;1.42;;;14.10;99.90;;;;;;5059166;28;20033;-69
2022/07/05 06:48:04;;;;;;;9.82;1.58;;;14.00;99.90;;;;;;5055368;28;20033;-67
2022/07/05 06:50:35;;;;;;;6.90;1.73;;;14.00;99.90;;;;;;5057761;28;20075;-65
2022/07/05 06:53:03;;;;;;;6.43;1.85;;;14.00;99.90;;;;;;5054236;28;20036;-64
2022/07/05 06:55:31;;;;;;;7.93;1.65;;;13.90;99.90;;;;;;5056956;28;20035;-68
2022/07/05 06:58:03;;;;;;;5.63;1.42;;;13.90;99.90;;;;;;5038170;28;20793;-65
2022/07/05 07:00:31;;;;;;;8.48;1.88;;;13.80;99.90;;;;;;5056427;28;20024;-67
2022/07/05 07:02:59;;;;;;;6.90;1.48;;;13.80;99.90;;;;;;5059461;28;20524;-65
2022/07/05 07:05:27;;;;;;;6.55;1.90;;;13.70;99.90;;;;;;5055703;28;20493;-65
2022/07/05 07:10:39;;;;;;;10.52;2.95;;;13.70;99.90;;;;;;5057006;28;20123;-64
2022/07/05 07:13:06;;;;;;;8.93;2.83;;;13.70;99.90;;;;;;5058037;28;20021;-65
2022/07/05 07:15:34;;;;;;;9.13;2.92;;;13.70;99.90;;;;;;5055745;28;20446;-67
2022/07/05 07:18:01;;;;;;;8.52;3.38;;;13.70;99.90;;;;;;5055090;28;20119;-66
2022/07/05 07:20:29;;;;;;;10.80;2.80;;;13.60;99.90;;;;;;5058113;28;20048;-64
2022/07/05 07:22:56;;;;;;;8.75;2.15;;;13.60;99.90;;;;;;5055975;28;20534;-68
2022/07/05 07:25:23;;;;;;;7.18;2.08;;;13.50;99.90;;;;;;5058663;28;20410;-67
2022/07/05 07:27:55;;;;;;;7.57;1.65;;;13.50;99.90;;;;;;5057294;28;20017;-64
2022/07/05 07:30:28;;;;;;;9.00;1.77;;;13.40;99.90;;;;;;5055738;28;20446;-67
2022/07/05 07:32:55;;;;;;;;;;;13.40;99.90;;;;;;5057280;28;20052;-67
2022/07/05 07:35:22;;;;;;;7.40;1.42;;;13.40;99.90;;;;;;5058820;28;19908;-68
2022/07/05 07:37:49;;;;;;;9.63;1.73;;;13.40;99.90;;;;;;5055034;28;20028;-67
2022/07/05 07:40:18;;;;;;;5.82;1.85;;;13.40;99.90;;;;;;5058313;28;20020;-66
2022/07/05 07:42:45;;;;;;;8.82;1.60;;;13.40;99.90;;;;;;5057619;28;20667;-69
2022/07/05 07:45:12;;;;;;;10.63;3.83;;;13.30;99.90;;;;;;5055720;28;20035;-67
2022/07/05 07:47:39;;;;;;;18.30;11.35;;;13.30;99.90;;;;;;5066556;28;20031;-66
2022/07/05 07:50:07;;;;;;;5.63;2.83;;;13.20;99.90;;;;;;5071240;28;20017;-68
2022/07/05 07:52:34;;;;;;;9.02;2.80;;;13.10;99.90;;;;;;5071595;28;20112;-68
2022/07/05 07:55:02;;;;;;;7.88;2.90;;;13.20;99.90;;;;;;5066923;28;20116;-66
2022/07/05 07:57:29;;;;;;;9.05;2.95;;;13.20;99.90;;;;;;5071103;28;20052;-69
2022/07/05 07:59:57;;;;;;;6.50;2.60;;;13.20;99.90;;;;;;5073407;28;20444;-65
2022/07/05 08:02:24;;;;;;;4.50;1.63;;;13.10;99.90;;;;;;5075844;28;20096;-69
2022/07/05 08:04:52;;;;;;;7.47;2.17;;;13.20;99.90;;;;;;5067913;28;20527;-66
2022/07/05 08:07:19;;;;;;;5.35;1.83;;;13.20;99.90;;;;;;5065561;28;20035;-66
2022/07/05 08:09:47;;;;;;;6.05;1.90;;;13.20;99.90;;;;;;5067102;28;20101;-65
2022/07/05 08:12:14;;;;;;;7.60;2.20;;;13.20;99.90;;;;;;5070683;28;20489;-66
2022/07/05 08:14:41;;;;;;;8.68;2.17;;;13.20;99.90;;;;;;5072233;28;20021;-70
2022/07/05 08:17:09;;;;;;;10.77;2.15;;;13.00;99.90;;;;;;5073869;28;20024;-68
2022/07/05 08:22:23;;;;;;;7.15;2.08;;;13.00;99.90;;;;;;5076427;28;20121;-68
2022/07/05 08:24:50;;;;;;;5.32;2.30;;;13.00;99.90;;;;;;5077324;28;20347;-66
2022/07/05 08:27:17;;;;;;;5.65;2.13;;;13.00;99.90;;;;;;5078476;28;20466;-65
2022/07/05 08:29:45;;;;;;;7.82;2.72;;;13.10;99.90;;;;;;5052717;28;20155;-65
2022/07/05 08:32:12;;;;;;;4.40;2.05;;;13.10;99.90;;;;;;5061518;28;20522;-66
2022/07/05 08:34:39;;;;;;;3.78;1.75;;;13.00;99.90;;;;;;5056627;28;20098;-66
2022/07/05 08:37:07;;;;;;;5.57;1.80;;;13.00;99.90;;;;;;5055996;28;20051;-68
2022/07/05 08:39:35;;;;;;;6.22;1.92;;;13.00;99.90;;;;;;5055107;28;20070;-70
2022/07/05 08:42:03;;;;;;;4.97;1.77;;;13.10;99.90;;;;;;5056618;28;20032;-67
2022/07/05 08:44:35;;;;;;;10.68;2.50;;;13.00;99.90;;;;;;5055805;28;20103;-66
2022/07/05 08:47:03;;;;;;;6.60;2.55;;;13.00;99.90;;;;;;5057670;28;20020;-69
2022/07/05 08:49:33;;;;;;;4.97;2.03;;;13.00;99.90;;;;;;5059942;28;20025;-66
2022/07/05 08:52:03;;;;;;;4.53;1.77;;;13.00;99.90;;;;;;5057696;28;20032;-67
2022/07/05 08:54:32;;;;;;;6.00;1.75;;;13.00;99.90;;;;;;5060328;28;20481;-64
2022/07/05 08:56:59;;;;;;;4.70;1.63;;;13.00;99.90;;;;;;5058070;28;20041;-67
2022/07/05 08:59:26;;;;;;;7.72;2.15;;;13.00;99.90;;;;;;5056988;28;20017;-69
2022/07/05 09:01:54;;;;;;;4.38;1.90;;;13.00;99.90;;;;;;5057298;28;20509;-67
2022/07/05 09:04:24;;;;;;;7.57;2.22;;;13.10;99.90;;;;;;5056017;28;20123;-67
2022/07/05 09:06:53;;;;;;;4.78;1.80;;;13.00;99.90;;;;;;5053954;28;20032;-66
2022/07/05 09:09:20;;;;;;;7.18;1.92;;;13.00;99.90;;;;;;5054519;28;20233;-68
2022/07/05 09:11:48;;;;;;;4.90;1.80;;;13.00;99.90;;;;;;5056894;28;20153;-64
2022/07/05 09:14:24;;;;;;;8.65;1.70;;;13.00;99.90;;;;;;5053323;28;20576;-68
2022/07/05 09:16:51;;;;;;;4.22;1.33;;;13.00;99.90;;;;;;5054237;28;20043;-73
2022/07/05 09:19:19;;;;;;;2.63;1.45;;;13.00;99.90;;;;;;5035277;28;20495;-69
2022/07/05 09:21:47;;;;;;;5.95;2.55;;;13.00;99.90;;;;;;5055989;28;20575;-71
2022/07/05 09:24:14;;;;;;;4.10;1.98;;;13.00;99.90;;;;;;5054753;28;20106;-69
2022/07/05 09:26:48;;;;;;;5.55;1.65;;;13.00;99.90;;;;;;5056206;28;20063;-69
2022/07/05 09:29:18;;;;;;;5.40;2.08;;;13.00;99.90;;;;;;5056151;28;20332;-69
2022/07/05 09:31:48;;;;;;;9.50;2.63;;;13.00;99.90;;;;;;5051970;28;20708;-71
2022/07/05 09:34:20;;;;;;;4.45;1.80;;;13.00;99.90;;;;;;5052950;28;20101;-69
2022/07/05 09:36:50;;;;;;;4.88;2.08;;;13.00;99.90;;;;;;5053751;28;20134;-68
2022/07/05 09:39:18;;;;;;;4.65;1.90;;;13.00;99.90;;;;;;5056248;28;20469;-70
2022/07/05 09:41:46;;;;;;;6.55;2.08;;;13.00;99.90;;;;;;5054475;28;20063;-70
2022/07/05 09:44:27;;;;;;;7.43;2.55;;;13.00;99.90;;;;;;5053092;28;20051;-69
2022/07/05 09:47:15;;;;;;;4.78;1.65;;;13.00;99.90;;;;;;5054283;28;20027;-68
2022/07/05 09:49:52;;;;;;;6.85;1.30;;;13.10;99.90;;;;;;5055478;28;20021;-68
2022/07/05 09:52:35;;;;;;;8.68;1.75;;;13.20;99.90;;;;;;5054258;28;20790;-68
2022/07/05 09:55:04;;;;;;;8.80;1.52;;;13.30;99.90;;;;;;5054442;28;20062;-69
2022/07/05 09:57:32;;;;;;;11.63;2.13;;;13.40;99.90;;;;;;5053277;28;20153;-69
2022/07/05 10:00:01;;;;;;;6.43;1.70;;;13.50;99.90;;;;;;5054764;28;20031;-69
2022/07/05 10:02:41;;;;;;;9.45;1.35;;;13.60;99.90;;;;;;5054427;28;20630;-69
2022/07/05 10:05:16;;;;;;;9.82;2.33;;;13.70;99.90;;;;;;5052556;28;20020;-68
2022/07/05 10:07:47;;;;;;;8.45;1.65;;;13.90;99.90;;;;;;5059482;28;20494;-69
2022/07/05 10:10:22;;;;;;;4.75;1.33;;;13.90;99.90;;;;;;5075182;28;20032;-69
2022/07/05 10:13:07;;;;;;;4.05;1.05;;;13.90;99.90;;;;;;5066802;28;20604;-70
2022/07/05 10:15:36;;;;;;;5.90;1.65;;;13.90;99.90;;;;;;5053780;28;20479;-70
2022/07/05 10:18:31;;;;;;;15.30;1.60;;;14.00;99.90;;;;;;5070525;28;20359;-69
2022/07/05 10:21:02;;;;;;;8.15;1.95;;;14.00;99.90;;;;;;5074665;28;20296;-70
2022/07/05 10:23:30;;;;;;;6.15;1.35;;;13.90;99.90;;;;;;5073785;28;20024;-71
2022/07/05 10:25:58;;;;;;;6.97;1.63;;;14.00;99.90;;;;;;5055699;28;20031;-68
2022/07/05 10:28:25;;;;;;;7.18;1.73;;;14.00;99.90;;;;;;5075354;28;20030;-68
2022/07/05 10:30:54;;;;;;;9.85;2.13;;;13.90;99.90;;;;;;5048387;28;20163;-69
2022/07/05 10:33:25;;;;;;;7.53;1.52;;;13.90;99.90;;;;;;5055379;28;20039;-71
2022/07/05 10:35:53;;;;;;;8.13;1.75;;;13.90;99.90;;;;;;5052403;28;20025;-69
2022/07/05 10:38:21;;;;;;;5.63;1.58;;;14.00;99.90;;;;;;5051414;28;20115;-69
2022/07/05 10:40:52;;;;;;;6.10;1.50;;;14.00;99.90;;;;;;5053394;28;20293;-69
2022/07/05 10:43:24;;;;;;;8.82;2.00;;;13.90;99.90;;;;;;5051304;28;20032;-71
2022/07/05 10:45:52;;;;;;;6.05;1.20;;;14.00;99.90;;;;;;5048932;28;20285;-69
2022/07/05 10:48:26;;;;;;;8.20;1.63;;;14.00;99.90;;;;;;5051225;28;20043;-67
2022/07/05 10:51:16;;;;;;;7.30;1.75;;;14.10;99.90;;;;;;5051403;28;20029;-67
2022/07/05 10:53:43;;;;;;;6.28;1.60;;;14.10;99.90;;;;;;5051441;28;20769;-65
2022/07/05 10:56:12;;;;;;;5.57;2.35;;;14.10;99.90;;;;;;5050756;28;20415;-68
2022/07/05 10:58:40;;;;;;;6.57;1.38;;;14.10;99.90;;;;;;5056972;28;20416;-65
2022/07/05 11:01:13;;;;;;;4.80;1.67;;;14.10;99.90;;;;;;5054129;28;20067;-67
2022/07/05 11:03:46;;;;;;;7.53;1.55;;;14.10;99.90;;;;;;5049638;28;20029;-67
2022/07/05 11:06:30;;;;;;;6.93;1.80;;;14.10;99.90;;;;;;5051347;28;20238;-65
2022/07/05 11:08:59;;;;;;;9.13;2.35;;;14.20;99.90;;;;;;5054645;28;20042;-66
2022/07/05 11:11:35;;;;;;;6.15;1.92;;;14.20;99.90;;;;;;5054925;28;20121;-67
2022/07/05 11:14:21;;;;;;;8.30;1.58;;;14.10;99.90;;;;;;5053407;28;20467;-66
2022/07/05 11:17:11;;;;;;;10.07;2.28;;;14.10;99.90;;;;;;5055609;28;20062;-67
2022/07/05 11:20:04;;;;;;;8.52;1.60;;;14.10;99.90;;;;;;5050936;28;20020;-66
2022/07/05 11:22:33;;;;;;;5.70;1.98;;;14.10;99.90;;;;;;5051925;28;20032;-65
2022/07/05 11:25:01;;;;;;;6.65;1.80;;;14.00;99.90;;;;;;5054675;28;20431;-66
2022/07/05 11:27:29;;;;;;;5.85;1.52;;;14.10;99.90;;;;;;5053077;28;20033;-65
2022/07/05 11:29:57;;;;;;;6.70;1.52;;;14.10;99.90;;;;;;5055196;28;20549;-68
2022/07/05 11:32:30;;;;;;;10.82;2.03;;;14.10;99.90;;;;;;5071467;28;20832;-67
2022/07/05 11:35:11;;;;;;;;;;;14.00;99.90;;;;;;5074749;28;20085;-67
2022/07/05 11:37:58;;;;;;;7.03;1.48;;;14.10;99.90;;;;;;5075406;28;19912;-66
2022/07/05 11:40:31;;;;;;;6.65;1.33;;;14.00;99.90;;;;;;5073906;28;20020;-69
2022/07/05 11:42:59;;;;;;;6.63;1.50;;;14.00;99.90;;;;;;5072460;28;20055;-67
2022/07/05 11:45:26;;;;;;;6.75;1.65;;;14.00;99.90;;;;;;5076700;28;20073;-66
2022/07/05 11:47:58;;;;;;;8.60;1.65;;;13.90;99.90;;;;;;5068179;28;20040;-67
2022/07/05 11:50:33;;;;;;;7.43;1.40;;;13.90;99.90;;;;;;5071700;28;20051;-67
2022/07/05 11:53:01;;;;;;;3.83;1.92;;;14.00;99.90;;;;;;5055703;28;20036;-69
2022/07/05 11:55:29;;;;;;;8.73;2.08;;;13.90;99.90;;;;;;5076508;28;20152;-66
2022/07/05 11:57:59;;;;;;;7.68;1.75;;;13.90;99.90;;;;;;5072668;28;20020;-66
2022/07/05 12:00:27;;;;;;;5.60;1.25;;;13.90;99.90;;;;;;5074698;28;20016;-65
2022/07/05 12:02:54;;;;;;;6.75;2.65;;;13.80;99.90;;;;;;5072972;28;20397;-65
2022/07/05 12:05:21;;;;;;;6.57;1.40;;;13.80;99.90;;;;;;5074084;28;20344;-68
2022/07/05 12:07:53;;;;;;;4.13;1.45;;;13.80;99.90;;;;;;5071877;28;20200;-67
2022/07/05 12:13:07;;;;;;;6.05;1.33;;;13.80;99.90;;;;;;5070229;28;20043;-68
2022/07/05 12:15:35;;;;;;;5.28;1.52;;;13.70;99.90;;;;;;5072718;28;20072;-66
2022/07/05 12:18:04;;;;;;;2.83;1.40;;;13.70;99.90;;;;;;5069564;28;20029;-68
2022/07/05 12:20:34;;;;;;;5.60;1.38;;;13.70;99.90;;;;;;5071071;28;20291;-65
2022/07/05 12:23:01;;;;;;;3.17;1.60;;;13.60;99.90;;;;;;5064450;28;20074;-65
2022/07/05 12:25:30;;;;;;;7.55;1.52;;;13.60;99.90;;;;;;5062399;28;20047;-65
2022/07/05 12:27:59;;;;;;;4.28;1.75;;;13.60;99.90;;;;;;5065720;28;20380;-68
2022/07/05 12:30:29;;;;;;;6.60;1.30;;;13.60;99.90;;;;;;5066476;28;20040;-66
2022/07/05 12:33:07;;;;;;;3.25;1.40;;;13.50;99.90;;;;;;5069726;28;20043;-64
2022/07/05 12:35:45;;;;;;;4.32;1.60;;;13.50;99.90;;;;;;5070074;28;20020;-64
2022/07/05 12:38:20;;;;;;;6.40;1.40;;;13.60;99.90;;;;;;5069480;28;20024;-65
2022/07/05 12:40:49;;;;;;;3.45;1.50;;;13.50;99.90;;;;;;5069284;28;20506;-65
2022/07/05 12:43:19;;;;;;;2.67;1.30;;;13.40;99.90;;;;;;5069068;28;20028;-63
2022/07/05 12:46:06;;;;;;;6.45;1.63;;;13.30;99.90;;;;;;5062889;28;20024;-67
2022/07/05 12:48:39;;;;;;;3.83;2.35;;;13.20;99.90;;;;;;5066121;28;20262;-65
2022/07/05 12:51:08;;;;;;;5.38;1.70;;;13.10;99.90;;;;;;5068513;28;20032;-63
2022/07/05 12:59:14;;;;;;;4.63;1.80;;;13.00;99.90;;;;;;5073604;28;20579;-66
2022/07/05 13:01:43;;;;;;;4.28;1.55;;;13.00;99.90;;;;;;5072834;28;20137;-66
2022/07/05 13:04:18;;;;;;;5.55;1.88;;;13.00;99.90;;;;;;5071244;28;20025;-66
2022/07/05 13:06:55;;;;;;;5.55;1.50;;;13.00;99.90;;;;;;5072461;28;20084;-66
2022/07/05 13:09:39;;;;;;;7.82;1.98;;;13.00;99.90;;;;;;5069598;28;20060;-64
2022/07/05 13:12:11;;;;;;;4.68;1.67;;;12.90;99.90;;;;;;5073838;28;20070;-66
2022/07/05 13:14:43;;;;;;;5.63;1.60;;;12.90;99.90;;;;;;5073708;28;20115;-66
2022/07/05 13:17:12;;;;;;;4.28;1.52;;;12.80;99.90;;;;;;5074378;28;20024;-66
2022/07/05 13:19:44;;;;;;;10.57;1.75;;;12.80;99.90;;;;;;5066729;28;20589;-65
2022/07/05 13:22:12;;;;;;;9.55;1.77;;;12.80;99.90;;;;;;5068039;28;20036;-65
2022/07/05 13:24:40;;;;;;;8.35;2.53;;;12.80;99.90;;;;;;5068015;28;20318;-66
2022/07/05 13:27:08;;;;;;;6.85;1.70;;;12.80;99.90;;;;;;5070192;28;20502;-64